メインページ
METAR-TAF:

METAR-TAF

空港 :

ストックホルム・アーランダ, スウェーデン

ストックホルム・アーランダ空港

緯度: 59-39N, 経度: 017-57E, 海抜: 38m

現時点の気象観測

当レポートは10分前の23:20(UTC)に作成
変向風 1kt
気温 -3°C
湿度 86%
気圧 1007 hPa
視程10km以上
1,500メートル以下は雲なし、積乱雲なし

METAR: ESSA 232320Z VRB01KT CAVOK M03/M05 Q1007 R01L/19//95 R08/19//95 R01R/19//95 NOSIG

時間: 01:30 (23:30 UTC)

予報

当レポートは6時間0分前の17:30(UTC)に作成
予報は23日の 18時(UTC)から 24日の 18時(UTC)まで有効
北/北東の風 6kt
視程10km以上
1,500メートル以下は雲なし、積乱雲なし
24日の 12時(UTC)から 24日の 14時(UTC)まで徐々に
南/南東の風 12kt
24日の 16時(UTC)から 24日の 18時(UTC)まで徐々に
南/南東の風 15kt、最大25ktの突風を伴う
視程: 2500m
高度400ftの千切れ雲あり
雨, 雪

TAF: ESSA 231730Z 2318/2418 02006KT CAVOK BECMG 2412/2414 16012KT BECMG 2416/2418 16015G25KT 2500 RASN BKN004

4,000以上の空港の気象観測と天気予報(METAR報とTAF報)

利用可能な観測所は地図上に黄色い丸と赤い丸で示す。

丸の上にカーソルを重ねると観測所名を参照できる。

次にクリックすると気象観測と天気予報を参照できる。

マップの切り替え:黒色「×」印の緑ボタンをクリックして拡大、「-」印の緑ボタンをクリックして縮小、緑色の三角印をクリックして隣りの地図に切り替え


METAR-TAF: